Flight Track Log - Related Links

Times and Time Zones

All times are in EDT time to prevent confusion due to time zone crossing. See the VH-YDN flight status page for this flight to view local times or setup timezone preferences in your user account.


Time Position Orientation Groundspeed Altitude Reporting Facility
EDT Latitude Longitude Course Direction KTS MPH feet Rate Location/Type
Fri 09:36:09 PM -19.7428 134.1740 360° North 23,000  Level Aus ATC (Calculated)
Fri 09:36:17 PM -19.7428 134.1740 184° South 23,000  Level Aus ATC (Calculated)
Fri 09:37:03 PM -19.7969 134.1701 184° South 23,000  Level Aus ATC (Calculated)
Fri 09:38:15 PM -19.9050 134.1623 184° South 23,000  Level Aus ATC (Calculated)
Fri 09:40:00 PM -20.0127 134.1546 184° South  Level FlightAware Approximate
Fri 09:40:03 PM -19.9591 134.1584 184° South 23,000  Level Aus ATC (Calculated)
Fri 09:42:00 PM -20.0790 134.1498 184° South  Level FlightAware Approximate
Fri 09:42:16 PM -20.1213 134.1468 184° South 23,000  Level Aus ATC (Calculated)
Fri 09:44:00 PM -20.2279 134.1391 184° South  Level FlightAware Approximate
Fri 09:44:25 PM -20.2294 134.1390 184° South 23,000  Level Aus ATC (Calculated)
Fri 09:46:00 PM -20.3268 134.1320 184° South  Level FlightAware Approximate
Fri 09:47:00 PM -20.3883 134.1275 184° South  Level FlightAware Approximate
Fri 09:47:04 PM -20.3916 134.1273 184° South 23,000  Level Aus ATC (Calculated)
Fri 09:48:04 PM -20.4456 134.1234 184° South 23,000  Level Aus ATC (Calculated)
Fri 09:50:00 PM -20.5645 134.1148 184° South  Level FlightAware Approximate
Fri 09:50:00 PM -20.5537 134.1156 184° South 23,000  Level Aus ATC (Calculated)
Fri 09:51:00 PM -20.6152 134.1111 184° South  Level FlightAware Approximate
Fri 09:51:04 PM -20.6078 134.1117 184° South 23,000  Level Aus ATC (Calculated)
Fri 09:53:00 PM -20.7267 134.1030 184° South  Level FlightAware Approximate
Fri 09:53:49 PM -20.7699 134.0999 184° South 23,000  Level Aus ATC (Calculated)
Fri 09:55:00 PM -20.8427 134.0946 184° South  Level FlightAware Approximate
Fri 09:56:00 PM -20.9043 134.0902 184° South  Level FlightAware Approximate
Fri 09:57:00 PM -20.9658 134.0857 184° South  Level FlightAware Approximate
Fri 09:58:00 PM -21.0273 134.0812 184° South  Level FlightAware Approximate
Fri 09:59:00 PM -21.0888 134.0767 184° South  Level FlightAware Approximate
Fri 10:00:00 PM -21.1503 134.0722 184° South  Level FlightAware Approximate
Fri 10:01:00 PM -21.2119 134.0677 184° South  Level FlightAware Approximate
Fri 10:02:00 PM -21.2734 134.0632 184° South  Level FlightAware Approximate
Fri 10:03:00 PM -21.3349 134.0587 184° South  Level FlightAware Approximate
Fri 10:03:03 PM -21.3105 134.0605 184° South 23,000  Level Aus ATC (Calculated)
Fri 10:05:00 PM -21.4304 134.0517 184° South  Level FlightAware Approximate
Fri 10:05:00 PM -21.4538 134.0501 North 23,000  Level Aus ATC (Calculated)
Fri 10:06:00 PM -21.3923 134.0546 North  Level FlightAware Approximate
Fri 10:06:03 PM -21.5431 134.0436 360° North 23,000  Level Aus ATC (Calculated)
Fri 10:06:33 PM -21.5431 134.0436 North 23,000  Level Aus ATC (Calculated)
Fri 10:08:00 PM -21.4540 134.0501 North  Level FlightAware Approximate
Fri 10:09:00 PM -21.3924 134.0546 North  Level FlightAware Approximate
Fri 10:09:55 PM -21.8111 134.0240 North 23,000  Level Aus ATC (Calculated)
Fri 10:10:00 PM -21.3856 134.0551 184° South  Level FlightAware Approximate
Fri 10:11:00 PM -21.8778 134.0191 184° South  Level FlightAware Approximate
Fri 10:12:00 PM -21.9393 134.0146 184° South  Level FlightAware Approximate
Fri 10:13:00 PM -22.0008 134.0101 184° South  Level FlightAware Approximate
Fri 10:14:00 PM -22.0623 134.0056 184° South  Level FlightAware Approximate
Fri 10:15:00 PM -22.1238 134.0011 184° South  Level FlightAware Approximate
Fri 10:16:00 PM -22.1854 133.9966 184° South  Level FlightAware Approximate
Fri 10:17:00 PM -22.2469 133.9920 184° South  Level FlightAware Approximate
Fri 10:18:00 PM -22.3084 133.9875 184° South  Level FlightAware Approximate
Fri 10:19:00 PM -22.3699 133.9830 184° South  Level FlightAware Approximate
Fri 10:20:00 PM -22.4314 133.9784 184° South  Level FlightAware Approximate
Fri 10:21:00 PM -22.4929 133.9739 184° South  Level FlightAware Approximate
Fri 10:22:00 PM -22.5544 133.9693 184° South  Level FlightAware Approximate
Fri 10:23:00 PM -22.6159 133.9648 184° South  Level FlightAware Approximate
Fri 10:24:00 PM -22.6774 133.9602 184° South  Level FlightAware Approximate
Fri 10:24:28 PM -22.7935 133.9516 360° North 23,000  Level Aus ATC (Calculated)
Fri 10:26:00 PM -22.6990 133.9516 North  Level FlightAware Approximate
Fri 10:27:00 PM -22.7606 133.9516 180° South  Level FlightAware Approximate
Fri 10:27:00 PM -22.9184 133.9425 184° South 500  Level Aus ATC (Calculated)
Fri 10:27:50 PM -22.9809 133.9379 219° Southwest 500  Level Aus ATC (Calculated)
Fri 10:27:50 PM -22.9809 133.9379 North 500  Level Aus ATC (Calculated)
Fri 10:28:00 PM -22.8569 133.9470 North  Level FlightAware Approximate
Fri 10:29:00 PM -22.9091 133.9432 North  Level FlightAware Approximate
Fri 10:30:00 PM -22.8476 133.9476 North  Level FlightAware Approximate
Fri 10:31:00 PM -22.7861 133.9521 North  Level FlightAware Approximate
Fri 10:32:00 PM -22.8476 133.9477 184° South  Level FlightAware Approximate
Fri 10:32:59 PM -23.3556 133.9104 North 500  Level Aus ATC (Calculated)
Fri 10:33:00 PM -23.0434 133.9333 184° South  Level FlightAware Approximate
Fri 10:34:00 PM -23.4181 133.9059 184° South  Level FlightAware Approximate
Fri 10:35:00 PM -23.4796 133.9013 184° South  Level FlightAware Approximate
Fri 10:35:18 PM -23.5429 133.8967 184° South 500  Level Aus ATC (Calculated)
Fri 10:36:59 PM -23.6678 133.8874 North 500  Level Aus ATC (Calculated)
Fri 10:37:00 PM -23.6475 133.8889 184° South  Level FlightAware Approximate
Fri 10:37:32 PM -23.6678 133.8874 184° South 500  Level Aus ATC (Calculated)
Fri 10:38:00 PM -23.7304 133.8828 184° South  Level FlightAware Approximate
Fri 10:39:00 PM -23.7580 133.8808 184° South  Level FlightAware Approximate
Fri 10:39:59 PM -23.8083 133.9009 37° Northeast  Level Aus ATC (Calculated)
Fri 10:40:00 PM -23.8067 133.9022 184° South  Level Estimated
Fri 10:41:00 PM -23.8067 133.9022 307° West  Level Estimated
Fri 10:42:00 PM -23.8067 133.9022 302° West  Level Estimated

Login

Don't have an account? Register now (free) for customized features, flight alerts, and more!